Latest Weather Observations for Cape Grim

IDT60801

Issued at 4:05 am EDT Friday 24 October 2014 (issued every 30 minutes, with the page automatically refreshed every 10 minutes)

About weather observations | Map of weather stations | Latest weather observations for TAS | Other Formats
Station Details ID: 091331 Name: CAPE GRIM Lat: -40.68 Lon: 144.69 Height: 86.0 m
Data from the previous 72 hours. | See also: Recent months at Cape Grim
Date/Time
EDT
Temp
°C
App
Temp
°C
Dew
Point
Rel
Hum
%
Delta-T
°C
Wind Press
QNH
hPa
Press
MSL
hPa
Rain
since 9 am
mm
Dir
 
Spd
km/h
Gust
km/h
Spd
kts
Gust
kts
24/04:00am 12.0 -0.5 9.2 83 1.4 E 65 80 35 43 1015.5 1015.6 0.0
24/03:43am 12.0 -0.9 9.0 82 1.5 E 67 87 36 47 1015.4 1015.5 0.0
24/03:30am 11.9 -0.6 9.1 83 1.4 E 65 82 35 44 1015.5 1015.6 0.0
24/03:03am 12.0 -0.5 9.2 83 1.4 E 65 83 35 45 1016.1 1016.2 0.0
24/03:00am 12.0 -0.1 9.2 83 1.4 E 63 80 34 43 1016.4 1016.5 0.0
24/02:30am 11.9 -0.2 9.3 84 1.3 E 63 83 34 45 1016.9 1017.0 0.0
24/02:00am 11.8 -0.3 9.2 84 1.3 E 63 87 34 47 1017.6 1017.7 0.0
24/01:34am 11.9 0.1 9.1 83 1.4 E 61 82 33 44 1018.0 1018.0 0.0
24/01:30am 11.9 0.1 9.1 83 1.4 E 61 78 33 42 1018.2 1018.2 0.0
24/01:00am 12.3 0.6 9.3 82 1.5 E 61 76 33 41 1018.7 1018.7 0.0
24/12:30am 12.1 1.1 9.3 83 1.4 E 57 78 31 42 1019.1 1019.1 0.0
24/12:11am 11.9 0.1 9.1 83 1.4 E 61 80 33 43 1019.1 1019.1 0.0
24/12:00am 11.9 -0.3 8.9 82 1.5 ENE 63 76 34 41 1019.2 1019.2 0.0
 
Date/Time
EDT
Temp
°C
App
Temp
°C
Dew
Point
Rel
Hum
%
Delta-T
°C
Wind Press
QNH
hPa
Press
MSL
hPa
Rain
since 9 am
mm
Dir
 
Spd
km/h
Gust
km/h
Spd
kts
Gust
kts
23/11:52pm 11.9 0.2 9.3 84 1.3 ENE 61 80 33 43 1019.4 1019.4 0.0
23/11:30pm 12.0 -0.5 9.4 84 1.3 ENE 65 78 35 42 1019.7 1019.7 0.0
23/11:00pm 12.0 1.1 9.4 84 1.3 ENE 57 72 31 39 1020.0 1020.0 0.0
23/10:30pm 12.1 1.8 9.5 84 1.3 E 54 67 29 36 1020.6 1020.6 0.0
23/10:09pm 12.0 2.4 9.4 84 1.3 ENE 50 69 27 37 1020.8 1020.8 0.0
23/10:00pm 12.2 1.4 9.2 82 1.5 ENE 56 69 30 37 1020.7 1020.7 0.0
23/09:30pm 12.2 2.2 9.2 82 1.5 ENE 52 63 28 34 1020.9 1020.9 0.0
23/09:00pm 12.2 3.9 9.4 83 1.4 ENE 43 65 23 35 1021.0 1021.0 0.0
23/08:53pm 12.4 3.6 9.4 82 1.5 ENE 46 65 25 35 1020.9 1020.9 0.0
23/08:30pm 12.3 4.4 9.3 82 1.5 ENE 41 52 22 28 1021.0 1021.0 0.0
23/08:00pm 12.5 3.6 9.1 80 1.7 ENE 46 59 25 32 1020.6 1020.6 0.0
23/07:30pm 12.6 4.7 9.4 81 1.6 ENE 41 54 22 29 1020.7 1020.7 0.0
23/07:12pm 12.8 4.5 9.4 80 1.7 ENE 43 61 23 33 1020.6 1020.6 0.0
23/07:00pm 13.0 4.8 9.6 80 1.7 ENE 43 54 23 29 1020.8 1020.8 0.0
23/06:30pm 13.5 6.1 9.7 78 2.0 ENE 39 52 21 28 1021.0 1021.0 0.0
23/06:00pm 14.0 7.0 10.0 77 2.1 ENE 37 50 20 27 1020.9 1020.9 0.0
23/05:30pm 14.4 7.2 10.4 77 2.1 ENE 39 52 21 28 1021.0 1021.0 0.0
23/05:00pm 14.5 7.2 10.3 76 2.2 ENE 39 48 21 26 1021.1 1021.1 0.0
23/04:30pm 14.7 7.4 10.3 75 2.3 ENE 39 50 21 27 1021.2 1021.2 0.0
23/04:00pm 14.9 7.7 10.7 76 2.2 ENE 39 46 21 25 1021.2 1021.2 0.0
23/03:30pm 14.8 7.7 10.8 77 2.1 E 39 46 21 25 1021.5 1021.5 0.0
23/03:00pm 15.2 8.8 12.0 81 1.7 ENE 37 46 20 25 1021.5 1021.5 0.0
23/02:30pm 15.1 8.1 11.3 78 2.0 ENE 39 50 21 27 1021.8 1021.8 0.0
23/02:11pm 14.7 8.2 11.7 82 1.6 ENE 37 46 20 25 1021.9 1021.9 0.0
23/02:00pm 14.4 8.3 11.6 83 1.5 ENE 35 44 19 24 1022.0 1022.0 0.0
23/01:30pm 14.4 7.5 11.7 84 1.5 ENE 39 46 21 25 1022.0 1022.0 0.0
23/01:00pm 14.2 8.1 11.9 86 1.2 ENE 35 46 19 25 1022.0 1022.0 0.0
23/12:47pm 14.0 8.3 11.3 84 1.4 ENE 32 39 17 21 1022.0 1022.0 0.0
23/12:30pm 15.0 8.7 11.2 78 2.0 ENE 35 46 19 25 1021.9 1021.9 0.0
23/12:02pm 15.9 10.6 13.2 84 1.5 ENE 33 41 18 22 1021.9 1021.9 0.0
23/12:00pm 15.7 10.6 13.0 84 1.5 ENE 32 41 17 22 1022.0 1022.0 0.0
23/11:30am 14.8 9.6 12.8 88 1.1 ENE 32 39 17 21 1022.1 1022.1 0.0
23/11:08am 15.1 10.3 13.0 87 1.2 ENE 30 35 16 19 1022.2 1022.2 0.0
23/11:07am 15.4 10.8 13.6 89 1.0 ENE 30 35 16 19 1022.2 1022.2 0.0
23/11:00am 15.0 10.2 12.9 87 1.2 ENE 30 35 16 19 1022.2 1022.2 0.0
23/10:46am 14.5 9.3 12.7 89 1.0 ENE 32 39 17 21 1022.1 1022.1 0.0
23/10:34am 14.6 10.6 13.0 90 0.9 ENE 26 33 14 18 1022.0 1022.0 0.0
23/10:30am 14.5 10.5 13.0 91 0.8 ENE 26 30 14 16 1022.0 1022.0 0.0
23/10:00am 13.8 10.4 12.4 91 0.8 ENE 22 30 12 16 1022.1 1022.1 0.0
23/09:30am 13.3 10.0 11.7 90 0.9 E 20 26 11 14 1022.1 1022.1 0.0
23/09:00am 13.1 9.9 11.2 88 1.0 E 19 22 10 12 1021.8 1021.8 0.0
23/08:30am 12.7 9.7 10.6 87 1.1 SE 17 20 9 11 1021.7 1021.7 0.0
23/08:28am 12.8 9.8 10.7 87 1.1 SE 17 22 9 12 1021.7 1021.7 0.0
23/08:00am 13.2 10.4 11.3 88 1.0 SSE 17 22 9 12 1020.9 1020.9 0.0
23/07:30am 12.1 8.4 10.3 89 0.9 SSE 20 30 11 16 1020.3 1020.3 0.0
23/07:00am 11.7 8.5 10.1 90 0.8 S 17 26 9 14 1020.2 1020.2 0.0
23/06:30am 11.8 8.1 10.2 90 0.8 SSW 20 26 11 14 1020.0 1020.0 0.0
23/06:00am 11.9 8.2 10.3 90 0.8 S 20 30 11 16 1019.5 1019.5 0.0
23/05:30am 11.9 8.2 10.3 90 0.8 S 20 26 11 14 1019.2 1019.2 0.0
23/05:00am 12.0 8.0 10.4 90 0.8 S 22 30 12 16 1018.7 1018.7 0.0
23/04:30am 12.0 8.4 10.4 90 0.8 S 20 30 11 16 1018.2 1018.2 0.0
23/04:00am 11.8 7.3 10.2 90 0.8 S 24 33 13 18 1018.0 1018.0 0.0
23/03:30am 11.7 8.2 10.1 90 0.8 S 19 26 10 14 1018.3 1018.3 0.0
23/03:00am 12.3 7.6 10.7 90 0.8 SSW 26 41 14 22 1017.4 1017.5 0.0
23/02:41am 12.3 7.3 10.9 91 0.7 S 28 35 15 19 1017.5 1017.6 0.0
23/02:30am 12.3 7.7 10.9 91 0.7 S 26 37 14 20 1017.5 1017.6 0.0
23/02:00am 12.5 6.8 11.1 91 0.7 SSW 32 39 17 21 1017.6 1017.7 0.0
23/01:30am 12.7 7.4 11.3 91 0.7 SSW 30 39 16 21 1017.9 1017.9 0.0
23/01:00am 12.7 6.5 11.4 92 0.7 SSW 35 48 19 26 1018.0 1018.0 0.0
23/12:30am 12.7 5.8 11.6 93 0.6 SSW 39 46 21 25 1018.0 1018.0 0.0
23/12:00am 12.9 7.8 12.0 94 0.5 SSW 30 41 16 22 1018.4 1018.4 0.0
 
Date/Time
EDT
Temp
°C
App
Temp
°C
Dew
Point
Rel
Hum
%
Delta-T
°C
Wind Press
QNH
hPa
Press
MSL
hPa
Rain
since 9 am
mm
Dir
 
Spd
km/h
Gust
km/h
Spd
kts
Gust
kts
22/11:30pm 12.8 6.7 11.9 94 0.5 SSW 35 44 19 24 1018.6 1018.6 0.0
22/11:00pm 13.0 8.7 12.1 94 0.5 SSW 26 37 14 20 1018.6 1018.6 0.0
22/10:30pm 13.0 8.3 11.9 93 0.6 SSW 28 37 15 20 1018.4 1018.4 0.0
22/10:00pm 13.1 8.8 12.0 93 0.6 SSW 26 32 14 17 1018.1 1018.1 0.0
22/09:30pm 13.2 9.6 11.9 92 0.7 SSW 22 32 12 17 1017.9 1017.9 0.0
22/09:00pm 13.4 8.6 11.8 90 0.9 SW 28 35 15 19 1017.8 1017.8 0.0
22/08:54pm 13.5 8.0 11.7 89 1.0 SW 32 35 17 19 1017.8 1017.8 0.0
22/08:30pm 13.4 11.7 11.1 86 1.2 SW 11 13 6 7 1017.4 1017.5 0.0
22/08:00pm 13.9 12.6 11.4 85 1.3 S 9 13 5 7 1017.1 1017.2 0.0
22/07:30pm 14.2 12.6 11.7 85 1.3 SE 11 15 6 8 1017.0 1017.1 0.0
22/07:00pm 14.8 12.7 12.3 85 1.4 E 15 20 8 11 1016.6 1016.7 0.0
22/06:30pm 14.4 11.9 12.3 87 1.1 E 17 20 9 11 1016.6 1016.7 0.0
22/06:00pm 14.2 9.9 12.1 87 1.1 E 26 32 14 17 1016.1 1016.2 0.0
22/05:30pm 14.1 8.6 12.0 87 1.1 E 32 35 17 19 1015.1 1015.2 0.0
22/05:00pm 14.3 8.8 12.0 86 1.2 E 32 37 17 20 1015.9 1016.0 0.0
22/04:30pm 14.4 9.7 11.9 85 1.4 E 28 33 15 18 1016.3 1016.4 0.0
22/04:00pm 14.1 7.3 11.8 86 1.2 E 39 48 21 26 1015.5 1015.6 0.0
22/03:30pm 14.6 7.3 11.6 82 1.6 ENE 41 46 22 25 1016.0 1016.1 0.0
22/03:00pm 15.5 8.1 12.4 82 1.7 E 43 50 23 27 1016.0 1016.1 0.0
22/02:30pm 14.7 6.8 11.3 80 1.8 E 44 52 24 28 1016.2 1016.3 0.0
22/02:00pm 14.9 6.6 11.3 79 1.9 ENE 46 54 25 29 1016.3 1016.4 0.0
22/01:30pm 14.7 6.1 11.5 81 1.7 ENE 48 57 26 31 1016.5 1016.6 0.0
22/01:00pm 15.8 7.7 12.2 79 2.0 ENE 46 57 25 31 1017.1 1017.2 0.0
22/12:30pm 15.2 6.3 11.8 80 1.8 ENE 50 61 27 33 1017.3 1017.4 0.0
22/12:00pm 15.0 6.0 11.6 80 1.8 E 50 57 27 31 1017.8 1017.8 0.0
22/11:30am 14.5 4.6 11.1 80 1.8 E 54 65 29 35 1018.0 1018.0 0.0
22/11:00am 15.2 5.4 11.4 78 2.0 ENE 54 65 29 35 1018.5 1018.5 0.0
22/10:30am 15.1 5.3 11.5 79 1.9 ENE 54 63 29 34 1019.0 1019.0 0.0
22/10:00am 14.8 5.7 11.4 80 1.8 E 50 61 27 33 1019.4 1019.4 0.0
22/09:30am 14.5 5.1 11.5 82 1.6 E 52 65 28 35 1019.4 1019.4 0.0
22/09:00am 14.3 4.5 11.6 84 1.4 E 54 65 29 35 1019.1 1019.1 0.0
22/08:30am 13.6 4.1 11.1 85 1.3 E 52 63 28 34 1019.5 1019.5 0.0
22/08:00am 13.1 3.6 11.0 87 1.1 E 52 63 28 34 1019.6 1019.6 0.0
22/07:30am 12.6 3.0 10.8 89 0.9 E 52 63 28 34 1019.7 1019.7 0.0
22/07:00am 12.4 3.1 10.6 89 0.9 E 50 57 27 31 1019.5 1019.5 0.0
22/06:30am 12.5 2.4 10.4 87 1.1 E 54 65 29 35 1019.7 1019.7 0.0
22/06:00am 12.5 2.4 10.4 87 1.1 E 54 67 29 36 1019.6 1019.6 0.0
22/05:30am 12.5 2.4 10.4 87 1.1 E 54 63 29 34 1019.6 1019.6 0.0
22/05:00am 12.4 1.8 10.1 86 1.2 E 56 70 30 38 1019.7 1019.7 0.0
22/04:30am 12.5 1.8 10.4 87 1.1 E 57 70 31 38 1019.7 1019.7 0.0
22/04:00am 12.4 1.9 10.3 87 1.1 E 56 70 30 38 1020.3 1020.3 0.0
22/03:30am 12.5 2.0 10.4 87 1.1 E 56 69 30 37 1020.8 1020.8 0.0
22/03:00am 12.5 1.8 10.2 86 1.2 E 57 70 31 38 1021.2 1021.2 0.0
22/02:30am 12.4 1.8 10.1 86 1.2 E 56 65 30 35 1021.6 1021.6 0.0
22/02:00am 12.4 1.8 10.0 85 1.2 E 56 69 30 37 1022.1 1022.1 0.0
22/01:30am 12.4 1.8 9.8 84 1.3 E 56 72 30 39 1022.7 1022.8 0.0
22/01:00am 12.3 1.4 9.7 84 1.3 E 57 69 31 37 1023.0 1023.1 0.0
22/12:30am 12.3 1.4 9.7 84 1.3 E 57 69 31 37 1023.4 1023.5 0.0
22/12:00am 12.3 1.4 9.5 83 1.4 E 57 69 31 37 1023.9 1024.0 0.0
 
Date/Time
EDT
Temp
°C
App
Temp
°C
Dew
Point
Rel
Hum
%
Delta-T
°C
Wind Press
QNH
hPa
Press
MSL
hPa
Rain
since 9 am
mm
Dir
 
Spd
km/h
Gust
km/h
Spd
kts
Gust
kts
21/11:30pm 12.4 1.7 9.6 83 1.4 E 56 69 30 37 1024.3 1024.4 0.0
21/11:00pm 12.4 1.1 9.6 83 1.4 E 59 70 32 38 1024.2 1024.3 0.0
21/10:30pm 12.5 1.5 9.3 81 1.6 ENE 57 72 31 39 1024.8 1024.9 0.0
21/10:20pm 12.3 1.5 9.1 81 1.6 ENE 56 74 30 40 1024.9 1025.0 0.0
21/10:00pm 12.4 2.0 9.1 80 1.7 ENE 54 67 29 36 1025.1 1025.2 0.0
21/09:30pm 12.4 2.0 9.2 81 1.6 ENE 54 65 29 35 1025.4 1025.5 0.0
21/09:00pm 12.3 2.2 9.1 81 1.6 ENE 52 65 28 35 1025.4 1025.5 0.0
21/08:30pm 12.4 1.4 9.1 80 1.7 E 57 72 31 39 1024.8 1024.9 0.0
21/08:00pm 12.5 1.5 9.0 79 1.8 ENE 57 69 31 37 1025.1 1025.2 0.0
21/07:30pm 12.6 2.1 8.9 78 1.9 ENE 54 67 29 36 1025.7 1025.8 0.0
21/07:00pm 12.9 2.4 9.0 77 2.0 ENE 54 67 29 36 1025.6 1025.7 0.0
21/06:34pm 13.2 3.4 10.0 81 1.7 E 52 70 28 38 1025.6 1025.7 0.0
21/06:30pm 13.2 3.0 10.0 81 1.7 E 54 67 29 36 1025.6 1025.7 0.0
21/06:16pm 13.4 3.1 9.8 79 1.9 ENE 54 72 29 39 1025.5 1025.6 0.0
21/06:00pm 13.6 2.3 9.6 77 2.0 E 59 74 32 40 1025.6 1025.7 0.0
21/05:32pm 14.0 2.8 9.8 76 2.2 E 59 78 32 42 1025.8 1025.9 0.0
21/05:30pm 13.9 2.2 9.5 75 2.3 E 61 78 33 42 1025.6 1025.7 0.0
21/05:00pm 14.1 2.8 9.5 74 2.4 E 59 70 32 38 1025.7 1025.8 0.0
21/04:53pm 14.5 3.7 10.1 75 2.3 E 57 76 31 41 1025.8 1025.9 0.0
21/04:30pm 14.5 3.6 9.7 73 2.5 E 57 74 31 40 1026.3 1026.4 0.0
21/04:00pm 14.8 4.2 9.8 72 2.6 ENE 56 70 30 38 1027.0 1027.1 0.0
21/03:30pm 14.6 2.8 9.0 69 2.9 E 61 76 33 41 1026.8 1026.9 0.0
21/03:26pm 14.9 3.6 9.3 69 2.9 E 59 78 32 42 1026.7 1026.8 0.0
21/03:00pm 14.7 2.9 8.9 68 2.9 E 61 78 33 42 1026.9 1027.0 0.0
21/02:52pm 14.8 3.3 8.7 67 3.1 E 59 78 32 42 1026.8 1026.9 0.0
21/02:30pm 14.9 2.7 9.1 68 3.0 E 63 76 34 41 1027.2 1027.3 0.0
21/02:00pm 15.0 3.2 9.1 68 3.0 E 61 74 33 40 1027.6 1027.7 0.0
21/01:30pm 14.6 2.4 8.8 68 3.0 E 63 78 34 42 1028.0 1028.1 0.0
21/01:00pm 15.3 4.4 9.7 69 2.9 E 57 72 31 39 1028.6 1028.7 0.0
21/12:30pm 14.6 3.4 8.3 66 3.2 E 57 72 31 39 1028.9 1029.0 0.0
21/12:00pm 14.3 2.6 8.0 66 3.1 E 59 72 32 39 1029.2 1029.3 0.0
21/11:45am 14.5 3.6 8.7 68 2.9 E 56 74 30 40 1029.4 1029.5 0.0
21/11:30am 14.3 3.1 8.5 68 2.9 E 57 72 31 39 1029.4 1029.5 0.0
21/11:00am 14.4 3.3 7.9 65 3.2 E 56 69 30 37 1029.9 1029.9 0.0
21/10:30am 14.1 2.8 7.9 66 3.1 E 57 78 31 42 1029.8 1029.8 0.0
21/10:29am 13.8 2.4 7.6 66 3.1 E 57 78 31 42 1029.6 1029.7 0.0
21/10:00am 13.6 2.2 7.6 67 2.9 E 57 74 31 40 1029.8 1029.8 0.0
21/09:30am 13.5 2.8 8.1 70 2.7 E 54 70 29 38 1029.9 1029.9 0.0
21/09:00am 13.0 1.7 8.1 72 2.4 E 57 72 31 39 1029.5 1029.6 0.0
21/08:30am 12.5 1.1 7.4 71 2.5 E 57 72 31 39 1029.5 1029.6 0.0
21/08:00am 12.0 1.4 6.9 71 2.4 ENE 52 67 28 36 1029.8 1029.8 0.0
21/07:30am 11.5 0.1 6.6 72 2.3 ENE 56 65 30 35 1029.8 1029.8 0.0
21/07:00am 11.3 0.2 6.4 72 2.3 ENE 54 69 29 37 1029.8 1029.8 0.0
21/06:30am 11.0 0.5 5.7 70 2.5 ENE 50 65 27 35 1029.5 1029.6 0.0
21/06:00am 10.9 0.5 5.9 71 2.3 ENE 50 69 27 37 1029.2 1029.3 0.0
21/05:57am 10.5 0.0 5.5 71 2.3 ENE 50 69 27 37 1029.2 1029.3 0.0
21/05:30am 10.9 -0.3 5.9 71 2.3 ENE 54 61 29 33 1028.8 1028.9 0.0
21/05:01am 10.9 0.9 6.1 72 2.2 ENE 48 69 26 37 1029.0 1029.1 0.0
21/05:00am 11.0 1.1 6.4 73 2.2 ENE 48 61 26 33 1029.0 1029.1 0.0
21/04:30am 11.1 0.4 6.3 72 2.3 ENE 52 67 28 36 1029.3 1029.4 0.0
21/04:21am 11.2 1.2 6.1 71 2.4 ENE 48 67 26 36 1029.3 1029.4 0.0

Other Formats:

Comma delimited format used in spreadsheet applications
http://www.bom.gov.au/fwo/IDT60801/IDT60801.95954.axf

JavaScript Object Notation format (JSON) in row-major order
http://www.bom.gov.au/fwo/IDT60801/IDT60801.95954.json